createdAt,value
2022-08-26T00:01:53.819Z,32.17
2022-08-26T00:04:23.628Z,33.58
2022-08-26T00:06:52.429Z,32.25
2022-08-26T00:09:20.060Z,33.79
2022-08-26T00:11:47.399Z,33.66
2022-08-26T00:14:15.300Z,32.13
2022-08-26T00:16:48.005Z,32.20
2022-08-26T00:19:20.292Z,32.75
2022-08-26T00:21:48.762Z,32.10
2022-08-26T00:24:18.215Z,33.76
2022-08-26T00:26:45.574Z,33.18
2022-08-26T00:29:13.431Z,33.72
2022-08-26T00:31:41.940Z,32.43
2022-08-26T00:34:11.296Z,33.54
2022-08-26T00:36:40.656Z,33.49
2022-08-26T00:39:08.916Z,31.94
2022-08-26T00:41:38.193Z,31.88
2022-08-26T00:44:05.697Z,31.78
2022-08-26T00:46:36.035Z,32.31
2022-08-26T00:49:12.027Z,34.68
2022-08-26T00:51:49.747Z,33.45
2022-08-26T00:54:17.239Z,33.65
2022-08-26T00:56:55.675Z,32.94
2022-08-26T00:59:23.062Z,35.68
2022-08-26T01:01:51.586Z,36.14
2022-08-26T01:04:20.901Z,38.08
2022-08-26T01:06:50.412Z,41.69
2022-08-26T01:09:18.149Z,43.86
2022-08-26T01:11:46.925Z,39.38
2022-08-26T01:14:14.554Z,37.57
2022-08-26T01:16:42.128Z,37.85
2022-08-26T01:19:23.988Z,37.74
2022-08-26T01:22:31.025Z,40.63
2022-08-26T01:24:59.400Z,40.44
2022-08-26T01:27:27.391Z,36.56
2022-08-26T01:30:00.434Z,36.69
2022-08-26T01:32:28.574Z,37.11
2022-08-26T01:34:55.948Z,36.22
2022-08-26T01:37:26.105Z,36.37
2022-08-26T01:39:54.437Z,35.85
2022-08-26T01:42:22.605Z,35.90
2022-08-26T01:44:55.977Z,35.01
2022-08-26T01:47:24.599Z,37.54
2022-08-26T01:49:53.644Z,35.71
2022-08-26T01:52:27.470Z,35.34
2022-08-26T01:54:55.833Z,34.67
2022-08-26T01:57:23.064Z,33.60
2022-08-26T01:59:51.023Z,34.22
2022-08-26T02:02:18.507Z,34.67
2022-08-26T02:04:49.122Z,34.89
2022-08-26T02:07:18.219Z,35.55
2022-08-26T02:09:45.681Z,35.73
2022-08-26T02:12:14.284Z,36.67
2022-08-26T02:14:44.521Z,36.06
2022-08-26T02:17:12.217Z,34.97
2022-08-26T02:19:40.642Z,35.31
2022-08-26T02:22:11.649Z,35.62
2022-08-26T02:24:47.415Z,34.82
2022-08-26T02:27:19.449Z,34.98
2022-08-26T02:29:49.285Z,34.36
2022-08-26T02:32:18.492Z,34.51
2022-08-26T02:34:46.080Z,34.20
2022-08-26T02:37:14.233Z,34.26
2022-08-26T02:39:42.236Z,34.73
2022-08-26T02:42:10.226Z,35.06
2022-08-26T02:44:38.759Z,34.70
2022-08-26T02:47:07.595Z,34.86
2022-08-26T02:49:36.274Z,34.91
2022-08-26T02:52:04.201Z,35.67
2022-08-26T02:54:32.413Z,34.88
2022-08-26T02:57:01.017Z,34.15
2022-08-26T02:59:29.471Z,34.55
2022-08-26T03:01:57.542Z,35.47
2022-08-26T03:04:25.896Z,35.96
2022-08-26T03:06:54.050Z,34.89
2022-08-26T03:09:23.486Z,34.97
2022-08-26T03:11:51.637Z,34.17
2022-08-26T03:14:18.920Z,34.85
2022-08-26T03:16:48.454Z,33.94
2022-08-26T03:19:17.632Z,34.68
2022-08-26T03:21:45.155Z,34.61
2022-08-26T03:24:14.901Z,34.59
2022-08-26T03:26:52.034Z,34.22
2022-08-26T03:29:39.718Z,35.33
2022-08-26T03:32:07.780Z,34.58
2022-08-26T03:34:35.592Z,34.66
2022-08-26T03:37:02.937Z,34.33
2022-08-26T03:39:31.609Z,35.71
2022-08-26T03:42:00.150Z,35.23
2022-08-26T03:44:27.469Z,34.49
2022-08-26T03:46:55.106Z,35.12
2022-08-26T03:49:22.498Z,35.21
2022-08-26T03:51:50.153Z,35.52
2022-08-26T03:54:17.603Z,34.95
2022-08-26T03:56:46.615Z,35.87
2022-08-26T03:59:14.052Z,36.00
2022-08-26T04:01:41.731Z,34.86
2022-08-26T04:04:09.122Z,36.20
2022-08-26T04:06:44.894Z,35.76
2022-08-26T04:09:18.994Z,35.91
2022-08-26T04:11:47.459Z,36.07
2022-08-26T04:14:20.095Z,35.40
2022-08-26T04:16:47.970Z,36.08
2022-08-26T04:19:15.517Z,36.05
2022-08-26T04:21:43.390Z,36.06
2022-08-26T04:24:12.142Z,36.71
2022-08-26T04:26:42.536Z,35.89
2022-08-26T04:29:12.835Z,36.97
2022-08-26T04:31:40.921Z,36.13
2022-08-26T04:34:09.007Z,36.01
2022-08-26T04:36:38.734Z,35.63
2022-08-26T04:39:06.007Z,35.78
2022-08-26T04:41:34.053Z,36.23
2022-08-26T04:44:04.828Z,36.55
2022-08-26T04:46:32.258Z,36.62
2022-08-26T04:48:59.590Z,36.90
2022-08-26T04:51:29.711Z,35.73
2022-08-26T04:53:57.703Z,35.94
2022-08-26T04:56:29.710Z,35.69
2022-08-26T04:58:57.065Z,35.82
2022-08-26T05:01:24.460Z,35.82
2022-08-26T05:03:51.925Z,35.24
2022-08-26T05:06:20.624Z,35.54
2022-08-26T05:08:49.395Z,35.01
2022-08-26T05:11:17.664Z,35.25
2022-08-26T05:13:45.812Z,35.90
2022-08-26T05:16:14.794Z,34.95
2022-08-26T05:18:43.670Z,34.56
2022-08-26T05:21:20.074Z,34.55
2022-08-26T05:23:48.290Z,34.90
2022-08-26T05:26:17.150Z,34.69
2022-08-26T05:28:51.191Z,33.99
2022-08-26T05:31:24.727Z,34.23
2022-08-26T05:33:52.890Z,35.01
2022-08-26T05:36:21.356Z,34.05
2022-08-26T05:38:48.861Z,34.18
2022-08-26T05:41:21.716Z,34.26
2022-08-26T05:43:48.975Z,34.61
2022-08-26T05:46:16.337Z,34.55
2022-08-26T05:48:44.584Z,33.76
2022-08-26T05:51:12.064Z,34.36
2022-08-26T05:53:43.977Z,34.35
2022-08-26T05:56:26.131Z,33.55
2022-08-26T05:58:53.871Z,33.32
2022-08-26T06:01:24.176Z,32.33
2022-08-26T06:03:52.834Z,32.83
2022-08-26T06:06:28.189Z,31.93
2022-08-26T06:08:57.942Z,32.41
2022-08-26T06:11:26.256Z,32.96
2022-08-26T06:13:54.299Z,31.78
2022-08-26T06:16:23.415Z,32.05
2022-08-26T06:18:52.158Z,33.12
2022-08-26T06:21:25.339Z,31.54
2022-08-26T06:24:13.179Z,30.49
2022-08-26T06:26:42.805Z,30.68
2022-08-26T06:29:10.976Z,30.98
2022-08-26T06:31:43.699Z,30.80
2022-08-26T06:34:11.552Z,31.11
2022-08-26T06:36:41.051Z,31.64
2022-08-26T06:39:12.318Z,30.27
2022-08-26T06:41:43.391Z,30.85
2022-08-26T06:44:12.036Z,30.95
2022-08-26T06:46:39.625Z,29.95
2022-08-26T06:49:07.053Z,30.80
2022-08-26T06:51:36.676Z,30.62
2022-08-26T06:54:04.485Z,30.53
2022-08-26T06:56:36.768Z,31.15
2022-08-26T06:59:04.145Z,30.78
2022-08-26T07:01:37.984Z,30.91
2022-08-26T07:04:10.508Z,30.86
2022-08-26T07:06:40.381Z,31.18
2022-08-26T07:09:09.981Z,32.17
2022-08-26T07:11:38.925Z,31.33
2022-08-26T07:14:06.749Z,31.97
2022-08-26T07:16:34.147Z,31.68
2022-08-26T07:19:11.267Z,31.52
2022-08-26T07:21:41.631Z,30.99
2022-08-26T07:24:11.076Z,30.74
2022-08-26T07:26:38.809Z,30.43
2022-08-26T07:29:12.549Z,30.75
2022-08-26T07:31:42.904Z,30.39
2022-08-26T07:34:11.316Z,30.57
2022-08-26T07:36:38.739Z,29.16
2022-08-26T07:39:06.678Z,29.22
2022-08-26T07:41:34.263Z,29.63
2022-08-26T07:44:01.545Z,29.44
2022-08-26T07:46:30.234Z,29.45
2022-08-26T07:48:58.114Z,29.67
2022-08-26T07:51:26.086Z,29.69
2022-08-26T07:53:54.526Z,28.15
2022-08-26T07:56:23.359Z,28.39
2022-08-26T07:58:52.177Z,29.34
2022-08-26T08:01:21.104Z,29.11
2022-08-26T08:03:51.631Z,27.94
2022-08-26T08:06:20.105Z,27.56
2022-08-26T08:08:47.784Z,27.59
2022-08-26T08:11:21.695Z,26.88
2022-08-26T08:13:49.862Z,26.90
2022-08-26T08:16:28.339Z,28.25
2022-08-26T08:18:59.780Z,27.00
2022-08-26T08:21:28.185Z,27.39
2022-08-26T08:23:57.002Z,27.67
2022-08-26T08:26:24.913Z,27.40
2022-08-26T08:28:56.406Z,27.04
2022-08-26T08:31:55.694Z,26.67
2022-08-26T08:34:19.974Z,27.38
2022-08-26T08:36:50.443Z,27.23
2022-08-26T08:39:20.783Z,27.61
2022-08-26T08:42:23.621Z,26.80
2022-08-26T08:44:52.095Z,27.00
2022-08-26T08:47:45.243Z,27.00
2022-08-26T08:50:33.784Z,26.95
2022-08-26T08:53:21.606Z,27.15
2022-08-26T08:56:02.750Z,26.55
2022-08-26T08:58:53.560Z,26.62
2022-08-26T09:01:52.366Z,26.55
2022-08-26T09:04:30.066Z,26.80
2022-08-26T09:06:59.016Z,26.03
2022-08-26T09:09:48.155Z,25.89
2022-08-26T09:12:29.762Z,26.38
2022-08-26T09:15:20.767Z,26.59
2022-08-26T09:17:51.669Z,26.06
2022-08-26T09:20:31.701Z,26.55
2022-08-26T09:22:59.047Z,26.96
2022-08-26T09:25:26.435Z,26.70
2022-08-26T09:27:53.857Z,26.11
2022-08-26T09:30:33.132Z,25.61
2022-08-26T09:33:14.508Z,26.10
2022-08-26T09:35:47.423Z,26.22
2022-08-26T09:38:28.014Z,26.32
2022-08-26T09:41:06.571Z,25.54
2022-08-26T09:43:36.118Z,25.35
2022-08-26T09:46:15.204Z,25.42
2022-08-26T09:48:43.340Z,25.51
2022-08-26T09:51:19.854Z,26.17
2022-08-26T09:53:55.595Z,26.65
2022-08-26T09:56:39.309Z,26.48
2022-08-26T09:59:11.150Z,26.19
2022-08-26T10:01:44.724Z,26.96
2022-08-26T10:04:22.516Z,27.14
2022-08-26T10:07:05.204Z,27.36
2022-08-26T10:09:39.443Z,26.94
2022-08-26T10:12:15.925Z,26.65
2022-08-26T10:14:52.183Z,27.00
2022-08-26T10:17:28.038Z,27.68
2022-08-26T10:20:02.505Z,26.92
2022-08-26T10:23:04.553Z,27.19
2022-08-26T10:25:55.375Z,27.60
2022-08-26T10:28:40.813Z,27.10
2022-08-26T10:31:27.667Z,27.34
2022-08-26T10:33:58.788Z,27.55
2022-08-26T10:37:13.406Z,27.82
2022-08-26T10:40:03.247Z,28.44
2022-08-26T10:42:38.090Z,28.17
2022-08-26T10:45:05.665Z,28.40
2022-08-26T10:47:38.627Z,27.97
2022-08-26T10:50:06.617Z,28.44
2022-08-26T10:52:46.469Z,28.69
2022-08-26T10:55:23.034Z,31.07
2022-08-26T10:57:57.810Z,29.10
2022-08-26T11:00:51.283Z,29.80
2022-08-26T11:03:37.727Z,29.90
2022-08-26T11:06:20.041Z,29.55
2022-08-26T11:08:50.986Z,29.92
2022-08-26T11:11:41.239Z,30.40
2022-08-26T11:14:28.687Z,29.50
2022-08-26T11:16:57.834Z,29.40
2022-08-26T11:20:01.219Z,29.56
2022-08-26T11:22:31.506Z,29.43
2022-08-26T11:24:58.909Z,29.40
2022-08-26T11:27:26.619Z,29.63
2022-08-26T11:30:02.720Z,28.93
2022-08-26T11:32:39.220Z,29.09
2022-08-26T11:35:19.745Z,28.68
2022-08-26T11:37:50.007Z,28.76
2022-08-26T11:40:30.874Z,28.97
2022-08-26T11:42:59.576Z,29.05
2022-08-26T11:45:28.508Z,29.26
2022-08-26T11:47:57.318Z,28.66
2022-08-26T11:50:28.062Z,29.59
2022-08-26T11:53:02.089Z,29.42
2022-08-26T11:55:31.075Z,29.97
2022-08-26T11:58:00.923Z,29.21
2022-08-26T12:00:33.547Z,29.75
2022-08-26T12:03:07.278Z,29.57
2022-08-26T12:05:37.430Z,29.86
2022-08-26T12:08:08.973Z,29.83
2022-08-26T12:10:37.533Z,29.46
2022-08-26T12:13:06.060Z,29.56
2022-08-26T12:15:35.606Z,29.36
2022-08-26T12:18:28.642Z,29.06
2022-08-26T12:21:02.158Z,29.43
2022-08-26T12:23:36.541Z,29.07
2022-08-26T12:26:33.829Z,28.45
2022-08-26T12:29:26.672Z,28.65
2022-08-26T12:32:13.587Z,27.82
2022-08-26T12:34:45.346Z,27.42
2022-08-26T12:37:14.105Z,26.82
2022-08-26T12:39:43.528Z,26.36
2022-08-26T12:42:15.830Z,27.27
2022-08-26T12:44:53.166Z,27.48
2022-08-26T12:47:32.764Z,27.95
2022-08-26T12:50:18.832Z,29.11
2022-08-26T12:53:00.794Z,28.67
2022-08-26T12:55:44.674Z,28.47
2022-08-26T12:58:27.229Z,29.19
2022-08-26T13:01:05.170Z,29.48
2022-08-26T13:03:43.771Z,29.88
2022-08-26T13:06:29.614Z,29.35
2022-08-26T13:09:10.319Z,29.14
2022-08-26T13:11:40.913Z,29.37
2022-08-26T13:14:10.485Z,29.40
2022-08-26T13:16:38.502Z,29.19
2022-08-26T13:19:10.154Z,29.78
2022-08-26T13:21:52.956Z,29.38
2022-08-26T13:24:22.276Z,29.23
2022-08-26T13:26:49.820Z,29.63
2022-08-26T13:29:17.512Z,28.75
2022-08-26T13:31:45.569Z,28.36
2022-08-26T13:34:14.650Z,28.32
2022-08-26T13:36:44.923Z,27.15
2022-08-26T13:39:12.517Z,27.17
2022-08-26T13:41:40.160Z,28.01
2022-08-26T13:44:07.835Z,28.24
2022-08-26T13:46:35.410Z,28.77
2022-08-26T13:49:03.244Z,28.77
2022-08-26T13:51:32.362Z,28.92
2022-08-26T13:53:59.984Z,29.77
2022-08-26T13:56:29.477Z,29.71
2022-08-26T13:58:57.613Z,29.92
2022-08-26T14:01:25.164Z,29.80
2022-08-26T14:03:52.827Z,29.17
2022-08-26T14:06:20.355Z,29.57
2022-08-26T14:08:48.229Z,29.11
2022-08-26T14:11:15.885Z,29.34
2022-08-26T14:13:43.285Z,29.20
2022-08-26T14:16:25.888Z,29.57
2022-08-26T14:18:53.292Z,29.98
2022-08-26T14:21:20.888Z,30.32
2022-08-26T14:23:48.351Z,30.64
2022-08-26T14:26:27.925Z,31.64
2022-08-26T14:28:58.917Z,31.38
2022-08-26T14:31:27.488Z,30.89
2022-08-26T14:33:59.894Z,31.13
2022-08-26T14:36:32.166Z,32.11
2022-08-26T14:39:05.810Z,31.67
2022-08-26T14:41:33.621Z,31.33
2022-08-26T14:44:03.695Z,31.63
2022-08-26T14:46:32.309Z,32.09
2022-08-26T14:49:01.569Z,31.27
2022-08-26T14:51:30.017Z,31.99
2022-08-26T14:54:12.310Z,31.77
2022-08-26T14:56:41.853Z,31.66
2022-08-26T14:59:10.409Z,31.73
2022-08-26T15:01:38.328Z,31.99
2022-08-26T15:04:05.698Z,32.06
2022-08-26T15:06:33.630Z,31.75
2022-08-26T15:09:01.223Z,32.03
2022-08-26T15:11:28.652Z,32.56
2022-08-26T15:13:56.315Z,31.89
2022-08-26T15:16:23.963Z,31.90
2022-08-26T15:18:51.792Z,32.28
2022-08-26T15:21:20.049Z,32.16
2022-08-26T15:23:48.364Z,31.85
2022-08-26T15:26:15.813Z,32.00
2022-08-26T15:28:43.165Z,32.12
2022-08-26T15:31:10.826Z,31.68
2022-08-26T15:33:39.319Z,31.71
2022-08-26T15:36:07.208Z,31.75
2022-08-26T15:38:37.092Z,31.65
2022-08-26T15:41:05.174Z,32.05
2022-08-26T15:43:32.852Z,32.38
2022-08-26T15:46:00.333Z,32.16
2022-08-26T15:48:27.804Z,32.50
2022-08-26T15:50:56.928Z,32.43
2022-08-26T15:53:24.439Z,32.60
2022-08-26T15:55:53.966Z,32.87
2022-08-26T15:58:21.872Z,32.38
2022-08-26T16:00:49.222Z,32.56
2022-08-26T16:03:16.653Z,32.92
2022-08-26T16:05:45.207Z,33.35
2022-08-26T16:08:12.905Z,33.42
2022-08-26T16:10:46.580Z,33.11
2022-08-26T16:13:17.683Z,32.96
2022-08-26T16:15:45.191Z,33.13
2022-08-26T16:18:13.964Z,33.44
2022-08-26T16:21:08.817Z,33.78
2022-08-26T16:23:36.191Z,33.63
2022-08-26T16:26:14.595Z,33.65
2022-08-26T16:28:43.755Z,34.17
2022-08-26T16:31:11.257Z,34.00
2022-08-26T16:33:38.634Z,34.17
2022-08-26T16:36:06.595Z,33.61
2022-08-26T16:38:34.396Z,33.44
2022-08-26T16:41:02.108Z,34.24
2022-08-26T16:43:29.527Z,33.87
2022-08-26T16:45:56.935Z,33.48
2022-08-26T16:48:24.433Z,33.57
2022-08-26T16:50:51.906Z,33.46
2022-08-26T16:53:19.355Z,33.69
2022-08-26T16:55:47.353Z,33.47
2022-08-26T16:58:14.996Z,33.14
2022-08-26T17:00:42.416Z,33.25
2022-08-26T17:03:10.074Z,33.44
2022-08-26T17:05:39.977Z,33.08
2022-08-26T17:08:07.359Z,33.17
2022-08-26T17:10:35.846Z,33.08
2022-08-26T17:13:03.652Z,33.34
2022-08-26T17:15:31.139Z,33.82
2022-08-26T17:17:59.506Z,33.30
2022-08-26T17:20:26.966Z,33.33
2022-08-26T17:22:55.051Z,33.32
2022-08-26T17:25:24.764Z,33.55
2022-08-26T17:27:52.181Z,33.54
2022-08-26T17:30:20.290Z,33.79
2022-08-26T17:32:48.018Z,33.44
2022-08-26T17:35:15.538Z,34.11
2022-08-26T17:37:42.905Z,34.10
2022-08-26T17:40:13.444Z,34.05
2022-08-26T17:42:41.234Z,34.93
2022-08-26T17:45:09.189Z,35.03
2022-08-26T17:47:36.916Z,34.83
2022-08-26T17:50:04.934Z,35.37
2022-08-26T17:52:32.238Z,35.47
2022-08-26T17:54:59.485Z,34.68
2022-08-26T17:57:27.160Z,35.41
2022-08-26T17:59:54.453Z,35.48
2022-08-26T18:02:21.839Z,34.80
2022-08-26T18:04:49.235Z,35.37
2022-08-26T18:07:16.854Z,35.49
2022-08-26T18:09:45.532Z,35.56
2022-08-26T18:12:12.974Z,35.96
2022-08-26T18:14:40.388Z,35.57
2022-08-26T18:17:08.388Z,35.33
2022-08-26T18:19:36.131Z,35.48
2022-08-26T18:22:03.690Z,35.64
2022-08-26T18:24:32.272Z,35.94
2022-08-26T18:26:59.552Z,35.76
2022-08-26T18:29:27.973Z,35.54
2022-08-26T18:31:55.350Z,35.32
2022-08-26T18:34:22.708Z,35.37
2022-08-26T18:36:52.345Z,35.83
2022-08-26T18:39:19.678Z,35.60
2022-08-26T18:41:53.146Z,36.25
2022-08-26T18:44:23.251Z,35.77
2022-08-26T18:46:50.852Z,35.65
2022-08-26T18:49:19.629Z,36.93
2022-08-26T18:51:47.719Z,36.33
2022-08-26T18:54:15.061Z,36.33
2022-08-26T18:56:43.781Z,36.63
2022-08-26T18:59:11.760Z,36.12
2022-08-26T19:01:40.516Z,36.48
2022-08-26T19:04:09.436Z,35.67
2022-08-26T19:06:45.499Z,34.53
2022-08-26T19:09:14.205Z,34.68
2022-08-26T19:11:46.404Z,34.95
2022-08-26T19:14:14.917Z,35.18
2022-08-26T19:16:43.839Z,35.71
2022-08-26T19:19:11.549Z,37.53
2022-08-26T19:21:38.977Z,39.91
2022-08-26T19:24:09.373Z,45.32
2022-08-26T19:26:38.921Z,42.72
2022-08-26T19:29:06.742Z,45.07
2022-08-26T19:31:34.128Z,44.60
2022-08-26T19:34:01.546Z,42.61
2022-08-26T19:36:29.010Z,41.67
2022-08-26T19:38:56.834Z,41.24
2022-08-26T19:41:37.449Z,39.77
2022-08-26T19:44:10.000Z,40.46
2022-08-26T19:49:09.784Z,39.11
2022-08-26T19:51:38.363Z,38.85
2022-08-26T19:54:06.836Z,38.95
2022-08-26T19:56:35.073Z,38.58
2022-08-26T19:59:02.385Z,38.57
2022-08-26T20:01:30.771Z,38.82
2022-08-26T20:03:58.473Z,38.92
2022-08-26T20:06:25.723Z,39.19
2022-08-26T20:08:55.015Z,38.80
2022-08-26T20:11:24.497Z,38.90
2022-08-26T20:13:51.894Z,39.22
2022-08-26T20:16:19.658Z,39.26
2022-08-26T20:19:05.388Z,38.67
2022-08-26T20:21:35.642Z,39.87
2022-08-26T20:24:08.380Z,39.66
2022-08-26T20:26:37.181Z,40.46
2022-08-26T20:29:05.093Z,41.02
2022-08-26T20:31:32.502Z,39.96
2022-08-26T20:34:00.393Z,39.85
2022-08-26T20:36:28.343Z,40.17
2022-08-26T20:38:55.754Z,40.67
2022-08-26T20:41:25.451Z,41.00
2022-08-26T20:43:53.521Z,40.23
2022-08-26T20:46:24.664Z,41.32
2022-08-26T20:48:53.143Z,42.08
2022-08-26T20:51:20.553Z,40.80
2022-08-26T20:53:47.897Z,42.85
2022-08-26T20:56:15.455Z,42.34
2022-08-26T20:58:43.079Z,41.03
2022-08-26T21:01:18.048Z,41.64
2022-08-26T21:03:45.877Z,42.34
2022-08-26T21:06:13.461Z,41.05
2022-08-26T21:08:43.189Z,41.92
2022-08-26T21:11:11.584Z,42.90
2022-08-26T21:14:01.533Z,41.32
2022-08-26T21:16:26.668Z,40.67
2022-08-26T21:18:54.031Z,42.49
2022-08-26T21:21:25.165Z,42.06
2022-08-26T21:23:52.724Z,41.44
2022-08-26T21:26:20.028Z,40.46
2022-08-26T21:28:47.553Z,41.35
2022-08-26T21:31:16.787Z,39.44
2022-08-26T21:33:45.922Z,40.95
2022-08-26T21:36:13.551Z,39.38
2022-08-26T21:38:41.692Z,38.52
2022-08-26T21:41:08.977Z,38.71
2022-08-26T21:43:38.425Z,39.36
2022-08-26T21:46:17.014Z,38.72
2022-08-26T21:48:50.326Z,37.41
2022-08-26T21:51:19.670Z,37.95
2022-08-26T21:53:47.148Z,37.72
2022-08-26T21:56:15.737Z,37.22
2022-08-26T21:58:43.131Z,37.75
2022-08-26T22:01:15.011Z,37.17
2022-08-26T22:03:47.590Z,36.53
2022-08-26T22:06:17.541Z,36.61
2022-08-26T22:08:45.962Z,37.16
2022-08-26T22:11:14.079Z,35.48
2022-08-26T22:13:42.313Z,35.35
2022-08-26T22:16:10.246Z,35.25
2022-08-26T22:18:37.737Z,34.51
2022-08-26T22:21:09.290Z,34.84
2022-08-26T22:23:36.959Z,35.10
2022-08-26T22:26:05.469Z,34.37
2022-08-26T22:28:33.667Z,34.85
2022-08-26T22:31:02.102Z,35.49
2022-08-26T22:33:29.646Z,34.85
2022-08-26T22:35:58.972Z,34.23
2022-08-26T22:38:27.335Z,34.30
2022-08-26T22:40:57.971Z,33.58
2022-08-26T22:43:25.327Z,33.21
2022-08-26T22:45:53.231Z,32.99
2022-08-26T22:48:22.395Z,33.50
2022-08-26T22:50:49.998Z,33.13
2022-08-26T22:53:17.800Z,31.56
2022-08-26T22:55:45.162Z,31.66
2022-08-26T22:58:14.533Z,31.19
2022-08-26T23:00:43.733Z,31.26
2022-08-26T23:03:11.728Z,34.41
2022-08-26T23:05:39.524Z,38.20
2022-08-26T23:08:07.831Z,34.57
2022-08-26T23:10:36.919Z,35.95
2022-08-26T23:13:05.196Z,32.14
2022-08-26T23:15:32.620Z,32.88
2022-08-26T23:18:00.146Z,31.87
2022-08-26T23:20:27.712Z,33.06
2022-08-26T23:22:56.072Z,30.87
2022-08-26T23:25:24.396Z,30.49
2022-08-26T23:27:51.909Z,31.10
2022-08-26T23:30:25.626Z,31.32
2022-08-26T23:32:53.091Z,31.75
2022-08-26T23:35:21.653Z,31.13
2022-08-26T23:37:51.318Z,29.95
2022-08-26T23:40:30.199Z,30.38
2022-08-26T23:42:58.042Z,29.86
2022-08-26T23:45:25.777Z,31.77
2022-08-26T23:47:53.379Z,31.65
2022-08-26T23:50:22.881Z,30.59
2022-08-26T23:53:09.051Z,30.36
2022-08-26T23:55:37.169Z,30.78
2022-08-26T23:58:05.460Z,29.92
